This is the latest recevied weather packets stored in our database for station/object N0NAI-13. If no packets are shown the sender has not sent any weather packets the latest 10 day(s).
| Time | Temp. | Humidity | Pressure | Rain* | Wind** | Luminosity | Snow |
|---|---|---|---|---|---|---|---|
| 1777590322 | 11.11° C | 45% | 1017.9 hPa | 0 mm | - | - | - |
| 1777589724 | 12.78° C | 44% | 1017.9 hPa | 0 mm | - | - | - |
| 1777589127 | 12.22° C | 43% | 1017.9 hPa | 0 mm | - | - | - |
| 1777588524 | 12.22° C | 44% | 1017.9 hPa | 0 mm | - | - | - |
| 1777587915 | 10° C | 47% | 1017.9 hPa | 0 mm | - | - | - |
| 1777587318 | 10.56° C | 48% | 1017.7 hPa | 0 mm | - | - | - |
| 1777586721 | 11.11° C | 46% | 1017.9 hPa | 0 mm | - | - | - |
| 1777586124 | 10.56° C | 48% | 1017.7 hPa | 0 mm | - | - | - |
| 1777585527 | 10.56° C | 49% | 1017.8 hPa | 0 mm | - | - | - |
| 1777584930 | 10.56° C | 47% | 1017.9 hPa | 0 mm | - | - | - |
| 1777584333 | 10.56° C | 49% | 1017.9 hPa | 0 mm | - | - | - |
| 1777583717 | 10.56° C | 48% | 1017.9 hPa | 0 mm | - | - | - |
| 1777583120 | 11.11° C | 48% | 1017.9 hPa | 0 mm | - | - | - |
| 1777582523 | 10.56° C | 49% | 1017.9 hPa | 0 mm | - | - | - |
| 1777581926 | 10.56° C | 49% | 1018 hPa | 0 mm | - | - | - |
| 1777581330 | 11.11° C | 48% | 1018.1 hPa | 0 mm | - | - | - |
| 1777580732 | 11.67° C | 48% | 1018.1 hPa | 0 mm | - | - | - |
| 1777580117 | 11.67° C | 47% | 1018.1 hPa | 0 mm | - | - | - |
| 1777579519 | 12.78° C | 47% | 1018.1 hPa | 0 mm | - | - | - |
| 1777578923 | 11.11° C | 48% | 1018.3 hPa | 0 mm | - | - | - |
| 1777578326 | 11.11° C | 50% | 1018.3 hPa | 0 mm | - | - | - |
| 1777577729 | 10.56° C | 51% | 1018.3 hPa | 0 mm | - | - | - |
| 1777577125 | 11.11° C | 49% | 1018.3 hPa | 0 mm | - | - | - |
| 1777576516 | 12.22° C | 48% | 1018.1 hPa | 0 mm | - | - | - |
| 1777575919 | 11.67° C | 48% | 1018.1 hPa | 0 mm | - | - | - |
* Rain latest hour (hover to see other rain measurements)
** Current wind speed in m/s (hover to see current wind gust speed)